createdAt,value
2023-06-03T00:01:44.854Z,98810.22
2023-06-03T00:04:12.689Z,98792.13
2023-06-03T00:06:40.123Z,98819.75
2023-06-03T00:09:07.424Z,98816.03
2023-06-03T00:11:37.138Z,98814.38
2023-06-03T00:14:04.040Z,98795.41
2023-06-03T00:16:33.985Z,98810.88
2023-06-03T00:19:01.092Z,98814.75
2023-06-03T00:21:29.162Z,98822.34
2023-06-03T00:23:56.400Z,98819.13
2023-06-03T00:26:23.471Z,98799.84
2023-06-03T00:28:56.866Z,98830.63
2023-06-03T00:31:24.408Z,98810.94
2023-06-03T00:33:52.366Z,98824.22
2023-06-03T00:36:19.464Z,98815.78
2023-06-03T00:38:46.594Z,98823.75
2023-06-03T00:41:13.554Z,98828.00
2023-06-03T00:43:41.041Z,98803.53
2023-06-03T00:46:11.054Z,98821.94
2023-06-03T00:48:39.772Z,98831.31
2023-06-03T00:51:08.423Z,98829.41
2023-06-03T00:53:36.740Z,98813.75
2023-06-03T00:56:04.795Z,98832.84
2023-06-03T00:58:31.930Z,98816.69
2023-06-03T01:00:59.501Z,98817.41
2023-06-03T01:03:27.123Z,98836.66
2023-06-03T01:06:15.890Z,98802.38
2023-06-03T01:09:03.282Z,98819.25
2023-06-03T01:11:57.578Z,98829.25
2023-06-03T01:14:36.012Z,98821.22
2023-06-03T01:17:11.204Z,98827.34
2023-06-03T01:19:54.419Z,98840.25
2023-06-03T01:22:25.773Z,98829.31
2023-06-03T01:25:02.469Z,98839.13
2023-06-03T01:27:29.873Z,98822.97
2023-06-03T01:29:57.298Z,98822.25
2023-06-03T01:32:24.667Z,98804.38
2023-06-03T01:34:52.994Z,98831.38
2023-06-03T01:37:21.447Z,98844.38
2023-06-03T01:39:51.131Z,98837.16
2023-06-03T01:42:18.265Z,98838.81
2023-06-03T01:44:46.188Z,98840.53
2023-06-03T01:47:13.329Z,98855.00
2023-06-03T01:49:41.558Z,98852.66
2023-06-03T01:52:08.623Z,98842.84
2023-06-03T01:54:36.074Z,98841.59
2023-06-03T01:57:03.809Z,98809.81
2023-06-03T01:59:31.046Z,98847.97
2023-06-03T02:01:59.344Z,98855.75
2023-06-03T02:04:27.380Z,98860.56
2023-06-03T02:06:57.322Z,98837.28
2023-06-03T02:09:28.760Z,98803.09
2023-06-03T02:11:56.904Z,98858.06
2023-06-03T02:14:24.932Z,98844.56
2023-06-03T02:16:52.178Z,98853.69
2023-06-03T02:19:21.973Z,98821.06
2023-06-03T02:21:49.494Z,98859.69
2023-06-03T02:24:16.387Z,98803.72
2023-06-03T02:26:55.663Z,98797.06
2023-06-03T02:29:24.146Z,98855.19
2023-06-03T02:31:51.654Z,98859.22
2023-06-03T02:34:20.530Z,98856.88
2023-06-03T02:36:48.210Z,98857.59
2023-06-03T02:39:15.816Z,98867.19
2023-06-03T02:41:45.089Z,98854.69
2023-06-03T02:44:14.521Z,98857.03
2023-06-03T02:46:41.965Z,98871.72
2023-06-03T02:49:09.975Z,98845.94
2023-06-03T02:51:38.244Z,98813.59
2023-06-03T02:54:05.477Z,98853.66
2023-06-03T02:56:32.636Z,98859.00
2023-06-03T02:58:59.812Z,98846.13
2023-06-03T03:01:28.533Z,98883.34
2023-06-03T03:03:56.331Z,98863.25
2023-06-03T03:06:25.563Z,98870.63
2023-06-03T03:08:57.315Z,98859.59
2023-06-03T03:11:31.236Z,98874.03
2023-06-03T03:13:59.540Z,98883.69
2023-06-03T03:16:27.748Z,98853.09
2023-06-03T03:18:56.685Z,98860.16
2023-06-03T03:21:24.037Z,98888.88
2023-06-03T03:23:51.717Z,98877.56
2023-06-03T03:26:23.098Z,98901.53
2023-06-03T03:28:54.126Z,98858.63
2023-06-03T03:31:23.452Z,98857.25
2023-06-03T03:33:51.459Z,98877.34
2023-06-03T03:36:23.986Z,98906.03
2023-06-03T03:39:04.451Z,98850.47
2023-06-03T03:41:35.293Z,98846.44
2023-06-03T03:44:04.109Z,98855.56
2023-06-03T03:46:33.359Z,98910.84
2023-06-03T03:49:01.711Z,98866.19
2023-06-03T03:51:29.365Z,98903.97
2023-06-03T03:53:57.603Z,98891.59
2023-06-03T03:56:30.255Z,98906.84
2023-06-03T03:58:59.956Z,98910.72
2023-06-03T04:01:39.558Z,98931.94
2023-06-03T04:04:42.328Z,98912.94
2023-06-03T04:07:16.421Z,98913.13
2023-06-03T04:09:44.254Z,98918.81
2023-06-03T04:12:35.291Z,98937.66
2023-06-03T04:15:05.252Z,98934.28
2023-06-03T04:17:39.543Z,98907.88
2023-06-03T04:20:33.220Z,98927.41
2023-06-03T04:23:09.029Z,98945.34
2023-06-03T04:25:38.733Z,98926.03
2023-06-03T04:28:11.896Z,98958.19
2023-06-03T04:30:42.529Z,98955.91
2023-06-03T04:33:16.844Z,98955.06
2023-06-03T04:35:43.989Z,98932.97
2023-06-03T04:38:13.231Z,98946.28
2023-06-03T04:40:40.726Z,98894.09
2023-06-03T04:43:09.208Z,98918.25
2023-06-03T04:45:38.541Z,98955.41
2023-06-03T04:48:06.723Z,98922.72
2023-06-03T04:50:37.132Z,98945.81
2023-06-03T04:53:09.672Z,98951.53
2023-06-03T04:55:36.778Z,98902.19
2023-06-03T04:58:07.220Z,98962.28
2023-06-03T05:00:36.925Z,98950.72
2023-06-03T05:03:17.785Z,98966.78
2023-06-03T05:05:55.464Z,98956.53
2023-06-03T05:08:24.836Z,98920.53
2023-06-03T05:10:52.605Z,98890.84
2023-06-03T05:13:19.703Z,98953.53
2023-06-03T05:15:47.732Z,98956.13
2023-06-03T05:18:15.166Z,98968.00
2023-06-03T05:20:47.656Z,98985.56
2023-06-03T05:23:24.365Z,98976.72
2023-06-03T05:25:51.496Z,98989.97
2023-06-03T05:28:19.394Z,98995.97
2023-06-03T05:30:46.483Z,99000.25
2023-06-03T05:33:27.876Z,98988.00
2023-06-03T05:36:03.351Z,98971.81
2023-06-03T05:38:33.373Z,99014.91
2023-06-03T05:41:05.420Z,98948.59
2023-06-03T05:43:33.127Z,98991.09
2023-06-03T05:46:00.963Z,99018.00
2023-06-03T05:48:28.808Z,98989.13
2023-06-03T05:50:56.346Z,98955.03
2023-06-03T05:53:27.882Z,99010.03
2023-06-03T05:55:57.953Z,99010.03
2023-06-03T05:58:32.056Z,99007.72
2023-06-03T06:01:03.793Z,98988.44
2023-06-03T06:03:31.442Z,99002.53
2023-06-03T06:06:00.164Z,99026.72
2023-06-03T06:08:29.333Z,98995.09
2023-06-03T06:10:56.899Z,98998.56
2023-06-03T06:13:24.609Z,99039.59
2023-06-03T06:16:04.177Z,99044.78
2023-06-03T06:18:32.646Z,99051.25
2023-06-03T06:21:01.225Z,99036.38
2023-06-03T06:23:29.491Z,99033.91
2023-06-03T06:25:57.203Z,99044.56
2023-06-03T06:28:30.052Z,99011.63
2023-06-03T06:31:08.233Z,99053.66
2023-06-03T06:33:48.670Z,99048.97
2023-06-03T06:36:34.338Z,99036.13
2023-06-03T06:39:21.506Z,99033.06
2023-06-03T06:41:49.787Z,99046.44
2023-06-03T06:44:17.094Z,99017.97
2023-06-03T06:46:44.276Z,98992.78
2023-06-03T06:49:11.572Z,99029.28
2023-06-03T06:51:40.368Z,99053.47
2023-06-03T06:54:08.788Z,99029.84
2023-06-03T06:56:39.639Z,99019.19
2023-06-03T06:59:07.065Z,99049.78
2023-06-03T07:01:35.635Z,99021.41
2023-06-03T07:04:02.992Z,99030.81
2023-06-03T07:06:30.161Z,99042.94
2023-06-03T07:09:06.003Z,99074.72
2023-06-03T07:11:47.992Z,99088.06
2023-06-03T07:14:17.946Z,99080.56
2023-06-03T07:16:45.152Z,99016.88
2023-06-03T07:19:13.896Z,99051.34
2023-06-03T07:21:45.818Z,99077.41
2023-06-03T07:24:16.645Z,99076.72
2023-06-03T07:26:47.516Z,99055.13
2023-06-03T07:29:15.083Z,99086.09
2023-06-03T07:31:43.061Z,99085.28
2023-06-03T07:34:16.788Z,99099.78
2023-06-03T07:36:45.615Z,99088.63
2023-06-03T07:39:18.732Z,99064.59
2023-06-03T07:41:52.315Z,99101.16
2023-06-03T07:44:44.358Z,99114.00
2023-06-03T07:47:16.515Z,99112.00
2023-06-03T07:49:48.614Z,99099.97
2023-06-03T07:52:20.881Z,99026.66
2023-06-03T07:54:48.354Z,99110.00
2023-06-03T07:57:16.138Z,99117.19
2023-06-03T07:59:53.894Z,99127.22
2023-06-03T08:02:21.615Z,99123.22
2023-06-03T08:04:49.173Z,99121.63
2023-06-03T08:07:17.256Z,99109.19
2023-06-03T08:09:44.433Z,99121.22
2023-06-03T08:12:11.764Z,99100.78
2023-06-03T08:14:40.695Z,99130.44
2023-06-03T08:17:10.554Z,99122.81
2023-06-03T08:19:38.245Z,99124.06
2023-06-03T08:22:37.127Z,99115.63
2023-06-03T08:25:04.385Z,99113.59
2023-06-03T08:27:36.297Z,99125.22
2023-06-03T08:30:05.002Z,99132.03
2023-06-03T08:32:35.259Z,99132.44
2023-06-03T08:35:02.930Z,99132.44
2023-06-03T08:37:30.716Z,99140.06
2023-06-03T08:39:57.915Z,99134.47
2023-06-03T08:42:35.395Z,99130.06
2023-06-03T08:45:06.623Z,99153.66
2023-06-03T08:47:52.493Z,99147.22
2023-06-03T08:50:22.521Z,99154.81
2023-06-03T08:52:52.194Z,99159.16
2023-06-03T08:55:24.987Z,99158.63
2023-06-03T08:58:26.338Z,99146.94
2023-06-03T09:00:58.890Z,99152.69
2023-06-03T09:03:26.878Z,99156.63
2023-06-03T09:05:55.510Z,99152.75
2023-06-03T09:08:24.949Z,99133.53
2023-06-03T09:10:52.882Z,99136.75
2023-06-03T09:13:21.766Z,99150.34
2023-06-03T09:15:51.928Z,99154.34
2023-06-03T09:18:19.596Z,99149.56
2023-06-03T09:20:46.891Z,99149.56
2023-06-03T09:23:14.445Z,99162.78
2023-06-03T09:25:41.679Z,99153.47
2023-06-03T09:28:08.574Z,99147.03
2023-06-03T09:30:36.774Z,99136.03
2023-06-03T09:33:04.256Z,99159.81
2023-06-03T09:35:31.703Z,99160.00
2023-06-03T09:38:05.819Z,99159.88
2023-06-03T09:40:34.304Z,99136.34
2023-06-03T09:43:01.583Z,99133.06
2023-06-03T09:45:28.754Z,99156.94
2023-06-03T09:48:00.374Z,99149.63
2023-06-03T09:50:32.461Z,99125.50
2023-06-03T09:53:01.411Z,99134.22
2023-06-03T09:55:40.831Z,99152.50
2023-06-03T09:58:11.306Z,99157.25
2023-06-03T10:00:52.835Z,99137.19
2023-06-03T10:03:24.899Z,99129.22
2023-06-03T10:05:52.042Z,99114.44
2023-06-03T10:08:30.404Z,99133.38
2023-06-03T10:10:59.940Z,99140.03
2023-06-03T10:13:27.771Z,99145.94
2023-06-03T10:15:55.090Z,99143.72
2023-06-03T10:18:42.062Z,99148.63
2023-06-03T10:21:12.034Z,99149.66
2023-06-03T10:23:41.331Z,99162.44
2023-06-03T10:26:09.398Z,99170.53
2023-06-03T10:28:40.109Z,99165.78
2023-06-03T10:31:11.427Z,99128.28
2023-06-03T10:33:40.341Z,99155.19
2023-06-03T10:36:07.962Z,99138.78
2023-06-03T10:38:34.914Z,99142.75
2023-06-03T10:41:04.877Z,99164.31
2023-06-03T10:43:33.075Z,99153.13
2023-06-03T10:46:02.359Z,99161.88
2023-06-03T10:48:32.101Z,99155.84
2023-06-03T10:51:42.786Z,99156.59
2023-06-03T10:54:09.689Z,99160.13
2023-06-03T10:56:43.927Z,99154.88
2023-06-03T10:59:17.456Z,99146.44
2023-06-03T11:01:59.918Z,99156.84
2023-06-03T11:04:29.663Z,99140.38
2023-06-03T11:06:57.102Z,99156.41
2023-06-03T11:09:37.975Z,99159.69
2023-06-03T11:12:14.675Z,99165.22
2023-06-03T11:14:49.929Z,99172.72
2023-06-03T11:17:19.814Z,99171.06
2023-06-03T11:19:47.306Z,99177.97
2023-06-03T11:22:35.880Z,99172.59
2023-06-03T11:25:03.645Z,99171.25
2023-06-03T11:27:31.433Z,99166.22
2023-06-03T11:30:01.404Z,99144.44
2023-06-03T11:32:29.831Z,99119.91
2023-06-03T11:35:06.389Z,99151.34
2023-06-03T11:37:42.638Z,99146.72
2023-06-03T11:40:21.231Z,99130.00
2023-06-03T11:42:48.317Z,99148.00
2023-06-03T11:45:18.857Z,99152.38
2023-06-03T11:47:54.980Z,99146.06
2023-06-03T11:50:35.094Z,99114.91
2023-06-03T11:53:02.528Z,99104.06
2023-06-03T11:55:32.067Z,99119.94
2023-06-03T11:58:09.810Z,99137.75
2023-06-03T12:00:37.030Z,99151.53
2023-06-03T12:03:05.370Z,99114.41
2023-06-03T12:05:32.831Z,99155.34
2023-06-03T12:08:01.265Z,99116.59
2023-06-03T12:10:41.584Z,99125.03
2023-06-03T12:13:08.646Z,99117.91
2023-06-03T12:15:35.808Z,99142.41
2023-06-03T12:18:06.254Z,99135.75
2023-06-03T12:20:33.685Z,99154.69
2023-06-03T12:23:00.767Z,99164.00
2023-06-03T12:25:31.605Z,99167.25
2023-06-03T12:27:58.820Z,99146.03
2023-06-03T12:30:34.266Z,99127.66
2023-06-03T12:33:01.981Z,99141.69
2023-06-03T12:35:29.600Z,99143.25
2023-06-03T12:38:06.644Z,99158.47
2023-06-03T12:40:34.279Z,99138.41
2023-06-03T12:43:02.481Z,99147.25
2023-06-03T12:45:30.050Z,99136.00
2023-06-03T12:47:57.365Z,99150.41
2023-06-03T12:50:32.758Z,99123.47
2023-06-03T12:53:15.602Z,99163.94
2023-06-03T12:55:43.298Z,99166.72
2023-06-03T12:58:21.131Z,99124.63
2023-06-03T13:00:48.115Z,99154.31
2023-06-03T13:03:15.296Z,99152.69
2023-06-03T13:05:43.622Z,99132.63
2023-06-03T13:08:13.884Z,99126.22
2023-06-03T13:10:41.376Z,99123.81
2023-06-03T13:13:08.296Z,99135.88
2023-06-03T13:15:35.715Z,99121.91
2023-06-03T13:18:02.853Z,99116.72
2023-06-03T13:20:30.239Z,99108.31
2023-06-03T13:22:57.597Z,99103.91
2023-06-03T13:25:24.810Z,99137.63
2023-06-03T13:27:53.060Z,99132.84
2023-06-03T13:30:20.526Z,99123.63
2023-06-03T13:32:47.798Z,99134.81
2023-06-03T13:35:15.281Z,99116.81
2023-06-03T13:37:42.617Z,99144.84
2023-06-03T13:40:10.371Z,99151.28
2023-06-03T13:42:37.980Z,99159.28
2023-06-03T13:45:08.225Z,99151.28
2023-06-03T13:47:36.192Z,99148.88
2023-06-03T13:50:05.543Z,99152.47
2023-06-03T13:52:32.710Z,99154.47
2023-06-03T13:55:00.429Z,99142.47
2023-06-03T13:57:29.345Z,99158.09
2023-06-03T13:59:56.793Z,99143.25
2023-06-03T14:02:24.271Z,99157.69
2023-06-03T14:04:51.389Z,99127.22
2023-06-03T14:07:18.658Z,99157.69
2023-06-03T14:09:45.849Z,99159.28
2023-06-03T14:12:13.011Z,99145.63
2023-06-03T14:14:40.373Z,99166.44
2023-06-03T14:17:08.820Z,99164.44
2023-06-03T14:19:35.913Z,99165.59
2023-06-03T14:22:03.990Z,99143.78
2023-06-03T14:24:31.154Z,99156.94
2023-06-03T14:26:58.227Z,99155.53
2023-06-03T14:29:25.395Z,99132.34
2023-06-03T14:31:53.418Z,99136.22
2023-06-03T14:34:20.544Z,99116.59
2023-06-03T14:36:48.066Z,99168.34
2023-06-03T14:39:17.555Z,99110.56
2023-06-03T14:41:46.514Z,99160.69
2023-06-03T14:44:13.939Z,99156.63
2023-06-03T14:46:41.619Z,99174.94
2023-06-03T14:49:08.841Z,99151.25
2023-06-03T14:51:36.124Z,99147.16
2023-06-03T14:54:06.303Z,99157.50
2023-06-03T14:56:34.915Z,99159.38
2023-06-03T14:59:03.602Z,99162.78
2023-06-03T15:01:31.091Z,99177.91
2023-06-03T15:03:58.482Z,99180.63
2023-06-03T15:06:25.720Z,99192.88
2023-06-03T15:08:55.446Z,99179.19
2023-06-03T15:11:23.679Z,99201.72
2023-06-03T15:13:50.542Z,99180.47
2023-06-03T15:16:17.937Z,99179.41
2023-06-03T15:18:44.962Z,99174.13
2023-06-03T15:21:12.226Z,99187.31
2023-06-03T15:23:39.326Z,99184.88
2023-06-03T15:26:07.105Z,99186.47
2023-06-03T15:28:34.590Z,99175.13
2023-06-03T15:31:01.996Z,99166.31
2023-06-03T15:33:29.188Z,99177.56
2023-06-03T15:35:56.391Z,99141.09
2023-06-03T15:38:23.477Z,99101.84
2023-06-03T15:40:50.684Z,99155.34
2023-06-03T15:43:19.905Z,99157.69
2023-06-03T15:45:47.258Z,99148.88
2023-06-03T15:48:16.334Z,99144.84
2023-06-03T15:50:43.697Z,99161.28
2023-06-03T15:53:12.233Z,99176.91
2023-06-03T15:55:41.484Z,99167.16
2023-06-03T15:58:09.015Z,99188.75
2023-06-03T16:00:36.633Z,99195.84
2023-06-03T16:03:05.101Z,99219.03
2023-06-03T16:05:33.848Z,99238.06
2023-06-03T16:08:01.670Z,99246.00
2023-06-03T16:10:29.079Z,99252.25
2023-06-03T16:12:56.556Z,99206.31
2023-06-03T16:15:24.037Z,99257.38
2023-06-03T16:17:51.250Z,99267.28
2023-06-03T16:20:18.448Z,99274.09
2023-06-03T16:22:45.496Z,99267.25
2023-06-03T16:25:12.733Z,99253.09
2023-06-03T16:27:42.100Z,99264.34
2023-06-03T16:30:09.756Z,99250.63
2023-06-03T16:32:37.665Z,99250.47
2023-06-03T16:35:06.081Z,99274.13
2023-06-03T16:37:33.253Z,99259.94
2023-06-03T16:40:00.277Z,99283.69
2023-06-03T16:42:27.489Z,99286.03
2023-06-03T16:44:54.373Z,99282.38
2023-06-03T16:47:21.399Z,99300.34
2023-06-03T16:49:48.592Z,99289.72
2023-06-03T16:52:15.671Z,99285.63
2023-06-03T16:54:43.666Z,99302.63
2023-06-03T16:57:10.952Z,99312.44
2023-06-03T16:59:37.920Z,99314.78
2023-06-03T17:02:05.205Z,99312.28
2023-06-03T17:04:32.470Z,99309.13
2023-06-03T17:06:59.344Z,99309.94
2023-06-03T17:09:26.326Z,99317.19
2023-06-03T17:11:53.251Z,99305.41
2023-06-03T17:14:20.160Z,99323.94
2023-06-03T17:16:47.474Z,99336.34
2023-06-03T17:19:14.556Z,99323.06
2023-06-03T17:21:43.085Z,99319.84
2023-06-03T17:24:11.693Z,99339.78
2023-06-03T17:26:38.607Z,99348.34
2023-06-03T17:29:07.719Z,99357.00
2023-06-03T17:31:35.225Z,99373.22
2023-06-03T17:34:02.571Z,99367.50
2023-06-03T17:36:29.846Z,99359.00
2023-06-03T17:38:57.441Z,99347.34
2023-06-03T17:41:24.395Z,99368.19
2023-06-03T17:43:51.422Z,99362.44
2023-06-03T17:46:18.364Z,99358.19
2023-06-03T17:48:45.758Z,99373.44
2023-06-03T17:51:12.784Z,99378.56
2023-06-03T17:53:39.816Z,99370.78
2023-06-03T17:56:07.057Z,99376.28
2023-06-03T17:58:34.296Z,99386.16
2023-06-03T18:01:01.287Z,99385.88
2023-06-03T18:03:28.550Z,99397.47
2023-06-03T18:05:55.696Z,99406.53
2023-06-03T18:08:22.920Z,99406.84
2023-06-03T18:10:49.747Z,99397.81
2023-06-03T18:13:17.123Z,99395.84
2023-06-03T18:15:44.197Z,99399.19
2023-06-03T18:18:14.009Z,99400.50
2023-06-03T18:20:41.615Z,99394.31
2023-06-03T18:23:08.849Z,99401.78
2023-06-03T18:25:35.989Z,99400.44
2023-06-03T18:28:03.096Z,99405.06
2023-06-03T18:30:31.047Z,99409.38
2023-06-03T18:32:58.176Z,99410.16
2023-06-03T18:35:25.992Z,99420.50
2023-06-03T18:37:53.037Z,99439.53
2023-06-03T18:40:19.942Z,99405.38
2023-06-03T18:42:47.062Z,99417.16
2023-06-03T18:45:15.488Z,99435.19
2023-06-03T18:47:44.844Z,99435.19
2023-06-03T18:50:12.822Z,99435.38
2023-06-03T18:52:39.839Z,99424.59
2023-06-03T18:55:07.941Z,99422.97
2023-06-03T18:57:34.924Z,99426.94
2023-06-03T19:00:03.944Z,99433.38
2023-06-03T19:02:31.165Z,99432.94
2023-06-03T19:04:58.353Z,99430.59
2023-06-03T19:07:25.386Z,99435.72
2023-06-03T19:09:52.568Z,99441.03
2023-06-03T19:12:19.768Z,99449.56
2023-06-03T19:14:46.764Z,99449.56
2023-06-03T19:17:13.957Z,99457.66
2023-06-03T19:19:41.166Z,99460.00
2023-06-03T19:22:08.194Z,99460.81
2023-06-03T19:24:35.444Z,99465.78
2023-06-03T19:27:02.349Z,99484.03
2023-06-03T19:29:29.342Z,99475.75
2023-06-03T19:31:56.525Z,99470.78
2023-06-03T19:34:23.817Z,99464.31
2023-06-03T19:36:50.884Z,99472.66
2023-06-03T19:39:18.025Z,99483.06
2023-06-03T19:41:45.098Z,99484.25
2023-06-03T19:44:12.177Z,99494.63
2023-06-03T19:46:39.877Z,99492.00
2023-06-03T19:49:07.095Z,99498.13
2023-06-03T19:51:34.232Z,99501.28
2023-06-03T19:54:01.493Z,99511.41
2023-06-03T19:56:28.783Z,99514.81
2023-06-03T19:58:56.102Z,99514.56
2023-06-03T20:01:23.099Z,99501.44
2023-06-03T20:03:50.095Z,99512.59
2023-06-03T20:06:17.407Z,99520.66
2023-06-03T20:08:44.240Z,99511.69
2023-06-03T20:11:11.406Z,99514.09
2023-06-03T20:13:38.503Z,99510.59
2023-06-03T20:16:06.851Z,99515.34
2023-06-03T20:18:34.345Z,99513.28
2023-06-03T20:21:01.731Z,99520.84
2023-06-03T20:23:28.777Z,99528.03
2023-06-03T20:25:56.881Z,99534.31
2023-06-03T20:28:24.933Z,99528.56
2023-06-03T20:30:52.322Z,99525.88
2023-06-03T20:33:19.969Z,99542.41
2023-06-03T20:35:47.893Z,99528.19
2023-06-03T20:38:15.237Z,99517.69
2023-06-03T20:40:42.795Z,99548.69
2023-06-03T20:43:10.028Z,99541.97
2023-06-03T20:45:41.599Z,99546.97
2023-06-03T20:48:12.561Z,99545.53
2023-06-03T20:50:39.841Z,99553.34
2023-06-03T20:53:06.881Z,99549.78
2023-06-03T20:55:34.262Z,99554.25
2023-06-03T20:58:02.711Z,99549.41
2023-06-03T21:00:30.000Z,99557.75
2023-06-03T21:02:58.017Z,99548.88
2023-06-03T21:05:25.091Z,99551.66
2023-06-03T21:07:52.283Z,99543.66
2023-06-03T21:10:19.432Z,99543.56
2023-06-03T21:12:46.933Z,99533.31
2023-06-03T21:15:14.031Z,99526.03
2023-06-03T21:17:41.216Z,99536.75
2023-06-03T21:20:09.371Z,99539.59
2023-06-03T21:22:36.774Z,99534.94
2023-06-03T21:25:04.329Z,99527.31
2023-06-03T21:27:31.416Z,99533.88
2023-06-03T21:29:58.376Z,99535.31
2023-06-03T21:32:25.269Z,99531.56
2023-06-03T21:34:52.379Z,99532.72
2023-06-03T21:37:19.270Z,99541.53
2023-06-03T21:39:46.380Z,99541.94
2023-06-03T21:42:13.601Z,99532.00
2023-06-03T21:44:40.514Z,99541.94
2023-06-03T21:47:10.471Z,99543.13
2023-06-03T21:49:37.447Z,99540.06
2023-06-03T21:52:04.642Z,99545.09
2023-06-03T21:54:31.650Z,99540.25
2023-06-03T21:56:58.714Z,99545.63
2023-06-03T21:59:26.008Z,99543.66
2023-06-03T22:01:53.083Z,99554.81
2023-06-03T22:04:20.100Z,99547.97
2023-06-03T22:06:47.124Z,99541.94
2023-06-03T22:09:14.382Z,99540.34
2023-06-03T22:11:41.403Z,99547.16
2023-06-03T22:14:08.431Z,99552.66
2023-06-03T22:16:35.500Z,99549.69
2023-06-03T22:19:02.532Z,99548.88
2023-06-03T22:21:31.420Z,99546.53
2023-06-03T22:23:59.039Z,99552.19
2023-06-03T22:26:27.186Z,99542.38
2023-06-03T22:28:54.392Z,99539.59
2023-06-03T22:31:21.365Z,99546.06
2023-06-03T22:33:48.705Z,99541.31
2023-06-03T22:36:15.952Z,99533.94
2023-06-03T22:38:43.119Z,99529.81
2023-06-03T22:41:10.112Z,99537.81
2023-06-03T22:43:37.185Z,99529.09
2023-06-03T22:46:04.321Z,99538.78
2023-06-03T22:48:31.769Z,99541.13
2023-06-03T22:50:58.617Z,99531.44
2023-06-03T22:53:25.966Z,99534.03
2023-06-03T22:55:52.869Z,99531.59
2023-06-03T22:58:20.063Z,99532.22
2023-06-03T23:00:47.074Z,99538.00
2023-06-03T23:03:14.263Z,99535.13
2023-06-03T23:05:41.312Z,99545.19
2023-06-03T23:08:08.432Z,99551.75
2023-06-03T23:10:35.559Z,99537.19
2023-06-03T23:13:02.791Z,99526.59
2023-06-03T23:15:29.738Z,99534.78
2023-06-03T23:17:56.881Z,99533.53
2023-06-03T23:20:26.369Z,99530.28
2023-06-03T23:22:53.679Z,99536.16
2023-06-03T23:25:21.271Z,99543.88
2023-06-03T23:27:49.012Z,99541.78
2023-06-03T23:30:16.472Z,99540.00
2023-06-03T23:32:44.405Z,99547.19
2023-06-03T23:35:12.000Z,99544.88
2023-06-03T23:37:44.742Z,99545.38
2023-06-03T23:40:12.869Z,99545.13
2023-06-03T23:42:40.615Z,99546.81
2023-06-03T23:45:08.980Z,99546.59
2023-06-03T23:47:36.560Z,99542.44
2023-06-03T23:50:04.936Z,99543.06
2023-06-03T23:52:32.872Z,99547.59
2023-06-03T23:55:00.343Z,99554.53
2023-06-03T23:57:28.912Z,99551.75
2023-06-03T23:59:59.072Z,99552.00
